Time;durP1;ratioP1;P1;durP2;ratioP2;P2;SDS_P1;SDS_P2;PMS_P1;PMS_P2;Temp;Humidity;BMP_temperature;BMP_pressure;BME280_temperature;BME280_humidity;BME280_pressure;Samples;Min_cycle;Max_cycle;Signal;HPM_P1;HPM_P2
2023/07/15 00:00:17;;;;;;;1.63;0.73;;;25.00;78.50;;;;;;5074186;28;20063;-73
2023/07/15 00:02:44;;;;;;;3.35;0.88;;;25.00;78.50;;;;;;5074119;28;20031;-74
2023/07/15 00:05:20;;;;;;;2.30;1.23;;;25.00;78.30;;;;;;5074062;28;20028;-73
2023/07/15 00:07:49;;;;;;;6.38;0.90;;;25.00;77.00;;;;;;5073641;28;20024;-73
2023/07/15 00:10:16;;;;;;;3.83;0.90;;;24.90;77.10;;;;;;5074230;28;20028;-73
2023/07/15 00:12:42;;;;;;;2.92;1.00;;;24.90;77.30;;;;;;5073843;28;20029;-74
2023/07/15 00:15:11;;;;;;;1.63;0.98;;;24.90;76.90;;;;;;5074057;28;20020;-73
2023/07/15 00:17:36;;;;;;;3.92;0.98;;;24.90;76.30;;;;;;5055978;28;20020;-73
2023/07/15 00:20:07;;;;;;;2.38;0.90;;;24.90;75.20;;;;;;5073667;28;20123;-75
2023/07/15 00:22:32;;;;;;;1.75;0.90;;;24.90;75.50;;;;;;5073554;28;20024;-74
2023/07/15 00:24:58;;;;;;;2.05;0.82;;;24.90;75.00;;;;;;5073903;28;20119;-73
2023/07/15 00:27:25;;;;;;;2.47;0.98;;;24.90;74.60;;;;;;5073866;28;20032;-73
2023/07/15 00:29:51;;;;;;;2.35;1.00;;;24.90;74.50;;;;;;5073555;28;20444;-73
2023/07/15 00:32:17;;;;;;;1.65;0.90;;;24.80;74.10;;;;;;5073646;28;20509;-73
2023/07/15 00:34:43;;;;;;;1.52;0.95;;;24.80;74.00;;;;;;5073477;28;20028;-73
2023/07/15 00:37:09;;;;;;;3.83;1.02;;;24.80;74.10;;;;;;5073296;28;20021;-75
2023/07/15 00:39:35;;;;;;;4.57;1.20;;;24.90;74.10;;;;;;5073334;28;20043;-73
2023/07/15 00:42:09;;;;;;;1.98;1.10;;;24.90;74.30;;;;;;5073671;28;20062;-74
2023/07/15 00:44:34;;;;;;;5.22;1.33;;;24.90;74.50;;;;;;5054589;28;20020;-74
2023/07/15 00:47:21;;;;;;;2.53;1.52;;;24.80;74.60;;;;;;5073341;28;20351;-73
2023/07/15 00:49:48;;;;;;;4.28;1.17;;;24.80;74.90;;;;;;5054844;28;20063;-73
2023/07/15 00:52:16;;;;;;;2.13;1.20;;;24.80;75.10;;;;;;5073416;28;20123;-74
2023/07/15 00:54:46;;;;;;;5.20;1.42;;;24.80;75.40;;;;;;5073688;28;20033;-74
2023/07/15 00:57:15;;;;;;;5.03;1.00;;;24.80;75.60;;;;;;5073167;28;20429;-74
2023/07/15 00:59:42;;;;;;;4.43;1.33;;;24.80;75.90;;;;;;5073300;28;20032;-74
2023/07/15 01:02:11;;;;;;;4.80;1.70;;;24.80;76.00;;;;;;5073299;28;20028;-74
2023/07/15 01:04:37;;;;;;;2.92;1.50;;;24.80;75.90;;;;;;5072793;28;20094;-73
2023/07/15 01:07:06;;;;;;;4.60;1.48;;;24.80;76.10;;;;;;5073269;28;20403;-74
2023/07/15 01:09:32;;;;;;;3.35;1.60;;;24.80;76.20;;;;;;5073064;28;20024;-73
2023/07/15 01:11:58;;;;;;;6.60;1.52;;;24.80;76.30;;;;;;5055164;28;20033;-74
2023/07/15 01:14:28;;;;;;;6.20;1.30;;;24.70;76.40;;;;;;5073243;28;20078;-73
2023/07/15 01:16:53;;;;;;;3.90;1.77;;;24.80;76.80;;;;;;5073116;28;20073;-74
2023/07/15 01:19:19;;;;;;;3.60;1.60;;;24.70;77.00;;;;;;5072640;28;20024;-74
2023/07/15 01:21:51;;;;;;;4.80;1.60;;;24.70;77.30;;;;;;5073130;28;20389;-74
2023/07/15 01:24:18;;;;;;;4.88;1.20;;;24.80;77.50;;;;;;5072948;28;20377;-73
2023/07/15 01:26:44;;;;;;;4.82;1.58;;;24.70;77.80;;;;;;5072943;28;20124;-74
2023/07/15 01:29:09;;;;;;;5.13;1.55;;;24.70;78.20;;;;;;5072958;28;20167;-74
2023/07/15 01:31:36;;;;;;;2.45;1.48;;;24.70;78.50;;;;;;5073062;28;20029;-73
2023/07/15 01:34:01;;;;;;;5.50;1.80;;;24.70;78.70;;;;;;5072455;28;20377;-73
2023/07/15 01:36:28;;;;;;;6.63;1.40;;;24.70;78.90;;;;;;5073132;28;20469;-73
2023/07/15 01:38:53;;;;;;;2.67;1.50;;;24.70;79.30;;;;;;5072734;28;20031;-73
2023/07/15 01:41:19;;;;;;;4.53;1.55;;;24.70;79.60;;;;;;5072863;28;20028;-73
2023/07/15 01:43:44;;;;;;;4.53;1.70;;;24.60;79.90;;;;;;5054871;28;20082;-74
2023/07/15 01:46:10;;;;;;;3.38;1.15;;;24.60;80.10;;;;;;5072760;28;20021;-73
2023/07/15 01:48:36;;;;;;;4.28;1.00;;;24.60;80.50;;;;;;5072602;28;20050;-73
2023/07/15 01:51:02;;;;;;;4.15;1.20;;;24.60;80.80;;;;;;5072374;28;20068;-74
2023/07/15 01:53:27;;;;;;;2.88;1.42;;;24.60;81.30;;;;;;5072928;28;20503;-74
2023/07/15 01:55:53;;;;;;;1.85;1.00;;;24.60;81.80;;;;;;5075721;28;20017;-73
2023/07/15 01:58:20;;;;;;;1.98;1.00;;;24.60;81.60;;;;;;5076668;28;20029;-74
2023/07/15 02:00:46;;;;;;;2.13;1.00;;;24.60;82.10;;;;;;5075939;28;20120;-73
2023/07/15 02:03:11;;;;;;;1.15;0.55;;;24.60;82.80;;;;;;5076250;28;20108;-73
2023/07/15 02:05:37;;;;;;;2.75;0.75;;;24.60;83.50;;;;;;5074692;28;20021;-75
2023/07/15 02:08:03;;;;;;;1.85;0.77;;;24.60;84.20;;;;;;5076176;28;20021;-74
2023/07/15 02:10:30;;;;;;;2.20;0.80;;;24.60;84.70;;;;;;5058367;28;20048;-73
2023/07/15 02:12:56;;;;;;;2.90;1.40;;;24.60;85.30;;;;;;5076119;28;20039;-73
2023/07/15 02:15:21;;;;;;;1.70;0.80;;;24.60;85.90;;;;;;5076348;28;20024;-73
2023/07/15 02:17:47;;;;;;;4.43;0.73;;;24.60;86.20;;;;;;5075941;28;20056;-73
2023/07/15 02:20:12;;;;;;;3.67;1.13;;;24.60;86.70;;;;;;5076312;28;20076;-73
2023/07/15 02:22:41;;;;;;;2.72;0.73;;;24.60;87.10;;;;;;5076215;28;20024;-74
2023/07/15 02:25:08;;;;;;;0.85;0.47;;;24.60;87.40;;;;;;5057881;28;20036;-73
2023/07/15 02:27:33;;;;;;;2.88;0.52;;;24.50;87.30;;;;;;5076220;28;20017;-73
2023/07/15 02:29:59;;;;;;;1.20;0.55;;;24.50;88.40;;;;;;5075996;28;20028;-74
2023/07/15 02:32:42;;;;;;;2.38;0.80;;;24.50;88.60;;;;;;5075782;28;20489;-73
2023/07/15 02:35:12;;;;;;;1.27;0.68;;;24.50;89.30;;;;;;5075892;28;20032;-73
2023/07/15 02:37:39;;;;;;;2.17;0.50;;;24.50;89.20;;;;;;5075800;28;20044;-73
2023/07/15 02:40:06;;;;;;;2.85;0.73;;;24.50;88.90;;;;;;5075779;28;20046;-74
2023/07/15 02:42:36;;;;;;;2.97;0.73;;;24.50;89.70;;;;;;5075707;28;20103;-73
2023/07/15 02:45:05;;;;;;;1.58;0.47;;;24.50;89.50;;;;;;5075733;28;20378;-73
2023/07/15 02:47:32;;;;;;;1.85;0.85;;;24.50;90.10;;;;;;5075299;28;20100;-74
2023/07/15 02:50:00;;;;;;;2.25;0.70;;;24.50;89.40;;;;;;5075246;28;20055;-73
2023/07/15 02:52:26;;;;;;;2.15;0.60;;;24.40;89.90;;;;;;5075403;28;20021;-73
2023/07/15 02:54:51;;;;;;;1.70;0.60;;;24.50;90.10;;;;;;5075653;28;20025;-73
2023/07/15 02:57:17;;;;;;;1.80;0.52;;;24.40;90.10;;;;;;5061923;28;20036;-74
2023/07/15 02:59:43;;;;;;;2.15;0.55;;;24.40;90.30;;;;;;5050724;28;20025;-74
2023/07/15 03:02:10;;;;;;;1.42;0.88;;;24.40;90.40;;;;;;5053762;28;20028;-73
2023/07/15 03:04:36;;;;;;;1.73;0.80;;;24.40;90.60;;;;;;5053138;28;20025;-74
2023/07/15 03:07:02;;;;;;;2.42;0.80;;;24.40;90.80;;;;;;5054168;28;20032;-73
2023/07/15 03:09:28;;;;;;;1.98;0.60;;;24.40;90.90;;;;;;5055354;28;20027;-73
2023/07/15 03:11:53;;;;;;;3.50;1.00;;;24.40;91.00;;;;;;5055172;28;20027;-74
2023/07/15 03:14:19;;;;;;;1.45;0.57;;;24.40;91.00;;;;;;5054908;28;20028;-73
2023/07/15 03:16:45;;;;;;;3.17;0.80;;;24.40;91.30;;;;;;5055741;28;20044;-73
2023/07/15 03:19:10;;;;;;;1.40;0.63;;;24.40;91.40;;;;;;5054816;28;20028;-73
2023/07/15 03:21:38;;;;;;;2.55;0.60;;;24.40;91.50;;;;;;5037204;28;20087;-73
2023/07/15 03:24:05;;;;;;;3.25;0.90;;;24.40;91.50;;;;;;5055030;28;20048;-74
2023/07/15 03:26:30;;;;;;;2.35;0.65;;;24.40;91.70;;;;;;5054809;28;20025;-74
2023/07/15 03:28:56;;;;;;;0.98;0.55;;;24.40;91.80;;;;;;5054594;28;20033;-73
2023/07/15 03:31:22;;;;;;;2.42;0.75;;;24.40;91.80;;;;;;5054956;28;20021;-73
2023/07/15 03:33:51;;;;;;;1.77;1.17;;;24.40;92.00;;;;;;5054663;28;20032;-75
2023/07/15 03:36:17;;;;;;;5.70;0.95;;;24.30;92.00;;;;;;5054827;28;20043;-74
2023/07/15 03:38:43;;;;;;;1.98;0.88;;;24.30;92.00;;;;;;5054809;28;20541;-74
2023/07/15 03:41:08;;;;;;;2.42;0.82;;;24.30;92.00;;;;;;5054458;28;20044;-74
2023/07/15 03:43:34;;;;;;;4.25;1.08;;;24.30;91.90;;;;;;5054339;28;20514;-74
2023/07/15 03:45:59;;;;;;;2.72;0.88;;;24.30;91.90;;;;;;5054624;28;20103;-73
2023/07/15 03:48:25;;;;;;;3.78;1.02;;;24.30;91.80;;;;;;5054376;28;20497;-73
2023/07/15 03:50:51;;;;;;;1.95;0.95;;;24.30;91.90;;;;;;5054233;28;20032;-73
2023/07/15 03:53:16;;;;;;;1.42;1.00;;;24.30;91.90;;;;;;5054347;28;20025;-74
2023/07/15 03:55:42;;;;;;;3.35;1.02;;;24.30;91.90;;;;;;5054513;28;20404;-73
2023/07/15 03:58:08;;;;;;;1.65;0.93;;;24.30;92.10;;;;;;5054027;28;20029;-73
2023/07/15 04:00:34;;;;;;;2.90;0.75;;;24.30;92.20;;;;;;5054285;28;20064;-73
2023/07/15 04:03:00;;;;;;;3.03;1.25;;;24.30;92.30;;;;;;5054054;28;20079;-73
2023/07/15 04:05:26;;;;;;;5.95;0.85;;;24.30;92.30;;;;;;5054466;28;20156;-73
2023/07/15 04:07:52;;;;;;;2.08;0.70;;;24.30;92.40;;;;;;5054148;28;20466;-73
2023/07/15 04:10:17;;;;;;;1.38;0.70;;;24.30;92.60;;;;;;5036133;28;20075;-73
2023/07/15 04:12:43;;;;;;;1.73;0.88;;;24.30;92.60;;;;;;5053732;28;20021;-73
2023/07/15 04:15:09;;;;;;;2.78;0.68;;;24.20;92.70;;;;;;5053896;28;20025;-74
2023/07/15 04:17:34;;;;;;;2.72;1.02;;;24.30;92.80;;;;;;5053806;28;20025;-73
2023/07/15 04:20:00;;;;;;;3.92;0.70;;;24.30;92.90;;;;;;5053874;28;20068;-74
2023/07/15 04:22:25;;;;;;;1.73;0.80;;;24.30;93.00;;;;;;5053881;28;20482;-73
2023/07/15 04:24:51;;;;;;;1.52;0.85;;;24.20;93.10;;;;;;5053822;28;20390;-73
2023/07/15 04:27:17;;;;;;;1.90;0.80;;;24.20;93.10;;;;;;5053424;28;20092;-73
2023/07/15 04:29:43;;;;;;;2.50;0.65;;;24.20;93.20;;;;;;5053765;28;20040;-73
2023/07/15 04:32:09;;;;;;;1.77;0.82;;;24.20;93.30;;;;;;5053673;28;20029;-73
2023/07/15 04:34:34;;;;;;;1.80;0.93;;;24.20;93.30;;;;;;5053821;28;20053;-74
2023/07/15 04:37:00;;;;;;;3.22;1.00;;;24.20;93.40;;;;;;5035689;28;20101;-74
2023/07/15 04:39:27;;;;;;;1.15;0.70;;;24.10;93.40;;;;;;5053553;28;20060;-73
2023/07/15 04:41:52;;;;;;;2.60;0.90;;;24.20;93.50;;;;;;5053439;28;20441;-74
2023/07/15 04:44:18;;;;;;;1.88;0.73;;;24.20;93.60;;;;;;5053277;28;20128;-74
2023/07/15 04:46:44;;;;;;;2.50;1.00;;;24.20;93.20;;;;;;5053479;28;20355;-74
2023/07/15 04:49:10;;;;;;;2.25;0.93;;;24.20;93.30;;;;;;5035412;28;20355;-74
2023/07/15 04:51:36;;;;;;;0.90;0.50;;;24.20;93.20;;;;;;5053300;28;20381;-74
2023/07/15 04:54:02;;;;;;;3.42;0.75;;;24.10;93.30;;;;;;5053205;28;20031;-74
2023/07/15 04:56:29;;;;;;;2.33;0.80;;;24.10;93.20;;;;;;5053144;28;20107;-74
2023/07/15 04:58:54;;;;;;;0.98;0.45;;;24.10;93.30;;;;;;5053022;28;20112;-74
2023/07/15 05:01:21;;;;;;;2.05;0.82;;;24.10;93.10;;;;;;5062951;28;20103;-73
2023/07/15 05:03:47;;;;;;;2.10;0.60;;;24.10;93.10;;;;;;5054869;28;20029;-73
2023/07/15 05:06:14;;;;;;;1.98;0.60;;;24.10;93.20;;;;;;5072700;28;20031;-74
2023/07/15 05:08:39;;;;;;;1.42;0.50;;;24.10;93.10;;;;;;5072552;28;20024;-72
2023/07/15 05:11:05;;;;;;;1.15;0.45;;;24.10;93.10;;;;;;5072966;28;20021;-73
2023/07/15 05:13:31;;;;;;;1.55;0.50;;;24.10;93.20;;;;;;5055186;28;20028;-74
2023/07/15 05:15:56;;;;;;;1.00;0.57;;;24.10;93.00;;;;;;5072900;28;20631;-74
2023/07/15 05:18:22;;;;;;;2.35;0.57;;;24.10;92.90;;;;;;5073118;28;20025;-73
2023/07/15 05:20:47;;;;;;;1.20;0.57;;;24.10;92.90;;;;;;5054930;28;20080;-74
2023/07/15 05:23:14;;;;;;;1.65;0.57;;;24.10;92.90;;;;;;5072976;28;20057;-74
2023/07/15 05:25:40;;;;;;;1.33;0.60;;;24.10;93.00;;;;;;5072567;28;20367;-73
2023/07/15 05:28:05;;;;;;;4.00;0.57;;;24.10;92.90;;;;;;5055060;28;20521;-74
2023/07/15 05:30:31;;;;;;;2.33;0.80;;;24.10;92.80;;;;;;5075521;28;20052;-74
2023/07/15 05:32:58;;;;;;;1.50;0.50;;;24.00;92.80;;;;;;5077137;28;20040;-73
2023/07/15 05:35:23;;;;;;;4.30;0.50;;;24.10;92.80;;;;;;5077174;28;20021;-73
2023/07/15 05:37:49;;;;;;;2.15;0.68;;;24.10;92.40;;;;;;5076940;28;20027;-74
2023/07/15 05:40:14;;;;;;;1.70;0.65;;;24.10;92.40;;;;;;5076506;28;20111;-73
2023/07/15 05:42:41;;;;;;;2.05;0.70;;;24.10;91.50;;;;;;5077084;28;20107;-73
2023/07/15 05:45:08;;;;;;;1.92;0.47;;;24.00;91.50;;;;;;5076734;28;20025;-74
2023/07/15 05:47:34;;;;;;;1.85;0.55;;;24.10;91.60;;;;;;5077030;28;20462;-73
2023/07/15 05:50:00;;;;;;;1.60;0.50;;;24.10;91.60;;;;;;5076609;28;20043;-73
2023/07/15 05:52:25;;;;;;;1.33;0.50;;;24.10;91.40;;;;;;5077040;28;20047;-74
2023/07/15 05:54:51;;;;;;;3.03;0.60;;;24.10;91.50;;;;;;5076462;28;20025;-73
2023/07/15 05:57:17;;;;;;;2.13;0.50;;;24.10;91.40;;;;;;5076611;28;20028;-73
2023/07/15 05:59:42;;;;;;;0.80;0.40;;;24.10;91.50;;;;;;5076708;28;20037;-74
2023/07/15 06:02:08;;;;;;;1.92;0.50;;;24.10;91.40;;;;;;5076820;28;20029;-74
2023/07/15 06:04:33;;;;;;;3.00;0.65;;;24.10;91.40;;;;;;5076457;28;20040;-73
2023/07/15 06:06:59;;;;;;;1.90;0.60;;;24.10;91.40;;;;;;5076444;28;20024;-74
2023/07/15 06:09:24;;;;;;;2.72;0.65;;;24.10;91.50;;;;;;5076233;28;20478;-74
2023/07/15 06:11:50;;;;;;;1.20;0.63;;;24.10;91.40;;;;;;5076130;28;20146;-73
2023/07/15 06:14:15;;;;;;;1.58;0.38;;;24.10;91.20;;;;;;5076232;28;20381;-74
2023/07/15 06:16:41;;;;;;;1.70;0.80;;;24.10;91.30;;;;;;5076201;28;20039;-74
2023/07/15 06:19:06;;;;;;;1.35;0.50;;;24.10;91.10;;;;;;5076175;28;20029;-74
2023/07/15 06:21:32;;;;;;;1.42;0.70;;;24.10;91.10;;;;;;5076162;28;20024;-74
2023/07/15 06:23:58;;;;;;;1.60;0.85;;;24.10;91.40;;;;;;5075814;28;20024;-74
2023/07/15 06:26:24;;;;;;;1.50;0.50;;;24.10;91.30;;;;;;5058105;28;20032;-73
2023/07/15 06:28:49;;;;;;;1.45;0.38;;;24.10;90.80;;;;;;5075962;28;20020;-74
2023/07/15 06:31:15;;;;;;;1.55;0.35;;;24.10;91.20;;;;;;5075802;28;20474;-74
2023/07/15 06:33:41;;;;;;;1.58;0.52;;;24.10;91.40;;;;;;5075966;28;20054;-74
2023/07/15 06:36:07;;;;;;;1.17;0.60;;;24.20;91.40;;;;;;5075717;28;20071;-74
2023/07/15 06:38:32;;;;;;;1.73;0.60;;;24.20;91.40;;;;;;5075700;28;20028;-74
2023/07/15 06:40:58;;;;;;;2.00;0.50;;;24.20;91.50;;;;;;5074338;28;20075;-74
2023/07/15 06:43:24;;;;;;;2.03;0.50;;;24.20;91.30;;;;;;5075668;28;20021;-74
2023/07/15 06:45:50;;;;;;;4.13;0.65;;;24.20;91.00;;;;;;5075811;28;20028;-74
2023/07/15 06:48:17;;;;;;;1.05;0.47;;;24.20;90.80;;;;;;5075743;28;20485;-74
2023/07/15 06:50:43;;;;;;;1.13;0.40;;;24.20;90.80;;;;;;5075483;28;20033;-74
2023/07/15 06:53:08;;;;;;;3.05;0.40;;;24.20;90.30;;;;;;5075229;28;20051;-74
2023/07/15 06:55:34;;;;;;;2.65;0.73;;;24.20;90.20;;;;;;5075727;28;20374;-74
2023/07/15 06:58:01;;;;;;;1.73;0.60;;;24.20;90.40;;;;;;5075382;28;20032;-74
2023/07/15 07:00:27;;;;;;;1.40;0.38;;;24.30;90.50;;;;;;5075367;28;20457;-74
2023/07/15 07:02:53;;;;;;;1.52;0.55;;;24.20;90.30;;;;;;5075503;28;20024;-73
2023/07/15 07:05:19;;;;;;;1.17;0.40;;;24.30;90.00;;;;;;5075313;28;20488;-74
2023/07/15 07:07:45;;;;;;;1.33;0.60;;;24.30;90.00;;;;;;5075016;28;20029;-74
2023/07/15 07:10:11;;;;;;;1.73;0.63;;;24.30;90.20;;;;;;5075324;28;20044;-74
2023/07/15 07:12:37;;;;;;;2.17;0.75;;;24.30;89.70;;;;;;5075259;28;20067;-74
2023/07/15 07:15:03;;;;;;;1.17;0.47;;;24.30;90.20;;;;;;5075047;28;20056;-73
2023/07/15 07:17:29;;;;;;;1.38;0.45;;;24.30;90.20;;;;;;5075089;28;20033;-74
2023/07/15 07:19:55;;;;;;;0.68;0.30;;;24.30;89.50;;;;;;5075236;28;20086;-74
2023/07/15 07:22:20;;;;;;;1.23;0.38;;;24.30;89.90;;;;;;5074493;28;20112;-74
2023/07/15 07:24:47;;;;;;;2.25;0.43;;;24.30;90.00;;;;;;5075169;28;20036;-74
2023/07/15 07:27:12;;;;;;;1.20;0.50;;;24.30;89.60;;;;;;5074719;28;20047;-74
2023/07/15 07:29:39;;;;;;;2.20;0.60;;;24.40;90.00;;;;;;5075220;28;20461;-74
2023/07/15 07:32:05;;;;;;;0.95;0.30;;;24.30;89.80;;;;;;5074660;28;20362;-74
2023/07/15 07:34:31;;;;;;;1.20;0.55;;;24.40;89.40;;;;;;5074844;28;20028;-74
2023/07/15 07:36:57;;;;;;;1.42;0.52;;;24.40;90.10;;;;;;5074496;28;20035;-74
2023/07/15 07:39:22;;;;;;;1.08;0.47;;;24.40;90.00;;;;;;5074664;28;20107;-74
2023/07/15 07:41:48;;;;;;;1.38;0.50;;;24.40;89.90;;;;;;5074818;28;20024;-74
2023/07/15 07:44:14;;;;;;;0.98;0.52;;;24.40;89.70;;;;;;5074665;28;20055;-74
2023/07/15 07:46:39;;;;;;;0.73;0.30;;;24.40;88.80;;;;;;5074556;28;20024;-74
2023/07/15 07:49:05;;;;;;;0.45;0.20;;;24.40;89.00;;;;;;5074496;28;20477;-73
2023/07/15 07:51:30;;;;;;;1.30;0.50;;;24.50;88.60;;;;;;5074070;28;20072;-74
2023/07/15 07:53:56;;;;;;;2.17;0.60;;;24.50;88.60;;;;;;5073964;28;20504;-74
2023/07/15 07:56:23;;;;;;;1.85;0.50;;;24.50;88.80;;;;;;5074352;28;20466;-74
2023/07/15 07:58:54;;;;;;;1.08;0.50;;;24.50;88.60;;;;;;5074152;28;20130;-75
2023/07/15 08:01:21;;;;;;;2.28;0.50;;;24.50;89.30;;;;;;5074076;28;20044;-74
2023/07/15 08:03:47;;;;;;;1.33;0.88;;;24.50;89.20;;;;;;5074222;28;20021;-74
2023/07/15 08:06:12;;;;;;;1.20;0.50;;;24.50;89.30;;;;;;5073895;28;20035;-74
2023/07/15 08:08:38;;;;;;;1.65;0.90;;;24.50;89.00;;;;;;5056018;28;20066;-74
2023/07/15 08:11:03;;;;;;;1.20;0.32;;;24.60;88.30;;;;;;5056599;28;20450;-74
2023/07/15 08:13:29;;;;;;;3.90;0.70;;;24.60;88.00;;;;;;5073845;28;20024;-73
2023/07/15 08:15:54;;;;;;;2.15;0.60;;;24.50;88.40;;;;;;5074231;28;20036;-74
2023/07/15 08:18:20;;;;;;;1.23;0.60;;;24.50;88.80;;;;;;5073807;28;20025;-74
2023/07/15 08:20:47;;;;;;;1.80;0.50;;;24.50;88.30;;;;;;5073648;28;20036;-74
2023/07/15 08:23:13;;;;;;;0.95;0.38;;;24.60;88.40;;;;;;5073584;28;20017;-74
2023/07/15 08:25:38;;;;;;;1.67;0.60;;;24.60;88.40;;;;;;5073926;28;20031;-74
2023/07/15 08:28:04;;;;;;;1.08;0.52;;;24.50;87.80;;;;;;5073646;28;20024;-73
2023/07/15 08:30:30;;;;;;;0.80;0.60;;;24.60;87.90;;;;;;5073604;28;20064;-74
2023/07/15 08:32:56;;;;;;;1.65;0.60;;;24.60;88.00;;;;;;5073751;28;20103;-73
2023/07/15 08:35:21;;;;;;;0.73;0.30;;;24.60;87.90;;;;;;5055497;28;20032;-73
2023/07/15 08:37:48;;;;;;;2.05;0.60;;;24.60;88.10;;;;;;5073691;28;20091;-75
2023/07/15 08:40:16;;;;;;;0.93;0.52;;;24.60;88.20;;;;;;5073635;28;20036;-74
2023/07/15 08:42:42;;;;;;;1.88;0.45;;;24.60;87.60;;;;;;5073811;28;20027;-73
2023/07/15 08:45:08;;;;;;;1.00;0.40;;;24.60;88.40;;;;;;5073541;28;20032;-75
2023/07/15 08:47:34;;;;;;;0.93;0.30;;;24.60;87.40;;;;;;5073633;28;20016;-75
2023/07/15 08:50:03;;;;;;;1.67;0.80;;;24.60;87.40;;;;;;5073047;28;20374;-75
2023/07/15 08:52:30;;;;;;;2.88;1.20;;;24.60;88.60;;;;;;5055266;28;20077;-75
2023/07/15 08:54:56;;;;;;;2.20;0.40;;;24.70;89.10;;;;;;5073637;28;20032;-74
2023/07/15 08:57:29;;;;;;;1.35;0.50;;;24.70;87.70;;;;;;5073531;28;20589;-74
2023/07/15 08:59:56;;;;;;;2.15;0.55;;;24.70;87.70;;;;;;5073270;28;20107;-74
2023/07/15 09:02:22;;;;;;;1.95;0.73;;;24.70;88.30;;;;;;5073006;28;20381;-74
2023/07/15 09:04:48;;;;;;;0.95;0.40;;;24.60;87.70;;;;;;5072492;28;20389;-74
2023/07/15 09:07:13;;;;;;;3.35;0.60;;;24.70;87.60;;;;;;5073255;28;20479;-74
2023/07/15 09:09:39;;;;;;;1.25;0.60;;;24.70;87.90;;;;;;5073018;28;20025;-75
2023/07/15 09:12:14;;;;;;;2.25;0.80;;;24.70;88.10;;;;;;5073284;28;20028;-74
2023/07/15 09:14:46;;;;;;;1.52;0.75;;;24.80;88.50;;;;;;5073068;28;20020;-74
2023/07/15 09:17:16;;;;;;;;;;;24.80;88.40;;;;;;5073250;28;20021;-74
2023/07/15 09:19:43;;;;;;;2.17;0.60;;;24.70;87.40;;;;;;5055034;28;20365;-74
2023/07/15 09:22:09;;;;;;;1.80;0.60;;;24.70;87.50;;;;;;5073254;28;20027;-74
2023/07/15 09:24:37;;;;;;;1.73;0.60;;;24.80;88.00;;;;;;5055049;28;20104;-74
2023/07/15 09:27:03;;;;;;;1.20;0.50;;;24.70;87.50;;;;;;5073163;28;20025;-74
2023/07/15 09:29:30;;;;;;;1.55;0.55;;;24.80;88.10;;;;;;5072895;28;20017;-74
2023/07/15 09:31:56;;;;;;;2.55;0.60;;;24.70;87.50;;;;;;5073037;28;20020;-74
2023/07/15 09:34:27;;;;;;;1.17;0.63;;;24.70;87.70;;;;;;5073076;28;20439;-74
2023/07/15 09:36:53;;;;;;;1.30;0.68;;;24.80;88.30;;;;;;5072957;28;20016;-74
2023/07/15 09:39:22;;;;;;;1.63;0.73;;;24.80;88.10;;;;;;5072810;28;20030;-74
2023/07/15 09:42:05;;;;;;;0.80;0.47;;;24.80;88.10;;;;;;5071768;28;20374;-74
2023/07/15 09:44:43;;;;;;;2.22;0.85;;;24.80;88.00;;;;;;5072497;28;20441;-74
2023/07/15 09:47:08;;;;;;;1.73;0.70;;;24.80;88.60;;;;;;5072637;28;20075;-74
2023/07/15 09:49:35;;;;;;;2.50;0.90;;;24.80;88.20;;;;;;5072653;28;20029;-74
2023/07/15 09:52:06;;;;;;;2.60;0.55;;;24.80;87.60;;;;;;5072531;28;20024;-74
2023/07/15 09:54:33;;;;;;;2.35;0.68;;;24.80;87.40;;;;;;5072822;28;20021;-74
2023/07/15 09:57:14;;;;;;;1.65;0.73;;;24.80;88.10;;;;;;5054650;28;20028;-74
2023/07/15 09:59:52;;;;;;;2.00;0.60;;;24.80;87.30;;;;;;5072608;28;20036;-75
2023/07/15 10:02:36;;;;;;;1.75;0.70;;;24.80;87.50;;;;;;5072277;28;20021;-74
2023/07/15 10:05:04;;;;;;;1.40;0.70;;;24.80;87.50;;;;;;5054536;28;20039;-74
2023/07/15 10:07:30;;;;;;;2.38;0.70;;;24.80;87.40;;;;;;5072470;28;20377;-74
2023/07/15 10:09:59;;;;;;;3.92;0.70;;;24.80;87.10;;;;;;5072742;28;20033;-74
2023/07/15 10:12:29;;;;;;;1.23;0.60;;;24.90;87.70;;;;;;5072631;28;20115;-74
2023/07/15 10:14:56;;;;;;;1.73;0.70;;;24.90;87.50;;;;;;5054620;28;20024;-74
2023/07/15 10:17:22;;;;;;;2.72;0.90;;;24.90;88.20;;;;;;5076164;28;20021;-74
2023/07/15 10:19:52;;;;;;;3.15;1.02;;;24.90;87.60;;;;;;5076165;28;20039;-75
2023/07/15 10:22:19;;;;;;;3.97;0.70;;;24.90;87.90;;;;;;5076090;28;20040;-74
2023/07/15 10:24:56;;;;;;;2.25;0.70;;;24.90;87.40;;;;;;5076192;28;20028;-74
2023/07/15 10:27:25;;;;;;;1.40;0.60;;;24.90;87.20;;;;;;5076124;28;20023;-75
2023/07/15 10:30:19;;;;;;;1.50;0.60;;;24.90;87.10;;;;;;5075950;28;20049;-75
2023/07/15 10:33:06;;;;;;;2.45;0.88;;;24.90;87.20;;;;;;5075865;28;20105;-74
2023/07/15 10:35:33;;;;;;;3.55;0.98;;;24.90;87.90;;;;;;5075968;28;20032;-74
2023/07/15 10:38:29;;;;;;;1.75;0.63;;;24.90;88.40;;;;;;5076048;28;20017;-74
2023/07/15 10:41:02;;;;;;;1.38;0.65;;;24.90;87.50;;;;;;5075738;28;20059;-74
2023/07/15 10:43:33;;;;;;;1.52;0.65;;;24.90;87.10;;;;;;5076011;28;20029;-74
2023/07/15 10:46:07;;;;;;;1.75;0.70;;;24.90;87.20;;;;;;5075417;28;20046;-74
2023/07/15 10:48:32;;;;;;;1.67;0.88;;;24.90;87.30;;;;;;5075836;28;20031;-74
2023/07/15 10:51:00;;;;;;;0.95;0.52;;;25.00;87.60;;;;;;5075298;28;20484;-74
2023/07/15 10:53:27;;;;;;;1.65;0.65;;;25.00;87.10;;;;;;5075614;28;20020;-75
2023/07/15 10:55:54;;;;;;;2.40;0.47;;;25.00;88.40;;;;;;5075556;28;20494;-74
2023/07/15 10:58:20;;;;;;;1.02;0.70;;;25.00;87.10;;;;;;5075516;28;20017;-74
2023/07/15 11:00:46;;;;;;;0.80;0.70;;;25.00;87.30;;;;;;5075435;28;20366;-74
2023/07/15 11:03:12;;;;;;;1.30;0.80;;;25.00;87.30;;;;;;5075284;28;20106;-75
2023/07/15 11:05:38;;;;;;;1.30;0.70;;;25.00;87.60;;;;;;5075332;28;20021;-74
2023/07/15 11:08:08;;;;;;;3.08;0.90;;;25.00;87.90;;;;;;5075418;28;20036;-75
2023/07/15 11:10:34;;;;;;;2.78;0.93;;;25.00;87.10;;;;;;5057348;28;20024;-75
2023/07/15 11:13:14;;;;;;;1.48;0.80;;;25.00;86.80;;;;;;5074982;28;20031;-75
2023/07/15 11:15:40;;;;;;;1.67;0.88;;;25.10;87.00;;;;;;5075278;28;20377;-74
2023/07/15 11:18:13;;;;;;;2.50;0.70;;;25.10;86.90;;;;;;5075011;28;20188;-75
2023/07/15 11:20:38;;;;;;;1.30;0.52;;;25.00;87.10;;;;;;5074984;28;20039;-75
2023/07/15 11:23:04;;;;;;;1.70;0.73;;;25.00;87.00;;;;;;5074964;28;20021;-75
2023/07/15 11:25:30;;;;;;;2.25;0.85;;;25.10;86.80;;;;;;5074953;28;20477;-75
2023/07/15 11:27:59;;;;;;;1.27;0.75;;;25.10;86.90;;;;;;5073872;28;20024;-75
2023/07/15 11:30:32;;;;;;;2.15;0.70;;;25.00;86.80;;;;;;5056987;28;20024;-75
2023/07/15 11:32:58;;;;;;;3.78;0.88;;;25.10;86.60;;;;;;5074669;28;20025;-75
2023/07/15 11:35:23;;;;;;;3.22;0.57;;;25.10;86.70;;;;;;5074847;28;20535;-75
2023/07/15 11:37:49;;;;;;;2.65;0.70;;;25.10;86.50;;;;;;5074732;28;20425;-74
2023/07/15 11:40:18;;;;;;;2.25;0.57;;;25.10;86.00;;;;;;5074792;28;20435;-74
2023/07/15 11:42:44;;;;;;;2.00;0.98;;;25.10;86.40;;;;;;5074247;28;20025;-75
2023/07/15 11:45:10;;;;;;;1.58;0.85;;;25.10;86.40;;;;;;5074695;28;20191;-75
2023/07/15 11:47:35;;;;;;;1.50;0.70;;;25.10;86.40;;;;;;5056596;28;20138;-74
2023/07/15 11:50:02;;;;;;;1.23;0.75;;;25.00;86.30;;;;;;5074423;28;20107;-74
2023/07/15 11:52:38;;;;;;;2.30;0.60;;;25.10;86.30;;;;;;5074377;28;20125;-74
2023/07/15 11:55:04;;;;;;;1.77;0.52;;;25.10;86.00;;;;;;5074522;28;20032;-74
2023/07/15 11:57:29;;;;;;;1.90;0.70;;;25.10;86.20;;;;;;5074209;28;20025;-74
2023/07/15 11:59:55;;;;;;;0.90;0.50;;;25.10;86.30;;;;;;5074184;28;20462;-76
2023/07/15 12:02:21;;;;;;;2.30;1.00;;;25.10;86.30;;;;;;5074491;28;20028;-75
2023/07/15 12:04:48;;;;;;;1.15;0.60;;;25.10;86.20;;;;;;5074293;28;20182;-74
2023/07/15 12:07:14;;;;;;;2.83;0.90;;;25.10;86.10;;;;;;5074301;28;20012;-74
2023/07/15 12:09:40;;;;;;;1.80;0.85;;;25.10;85.70;;;;;;5074172;28;20385;-74
2023/07/15 12:12:06;;;;;;;1.90;0.70;;;25.10;85.60;;;;;;5073949;28;20036;-75
2023/07/15 12:14:33;;;;;;;1.85;0.80;;;25.20;85.70;;;;;;5073991;28;20020;-75
2023/07/15 12:17:00;;;;;;;1.60;0.80;;;25.20;85.50;;;;;;5073989;28;20017;-74
2023/07/15 12:19:27;;;;;;;1.65;0.70;;;25.20;85.00;;;;;;5073773;28;20521;-75
2023/07/15 12:21:52;;;;;;;1.90;0.80;;;25.20;85.10;;;;;;5073992;28;20415;-74
2023/07/15 12:24:18;;;;;;;2.45;0.80;;;25.20;85.10;;;;;;5073786;28;20497;-75
2023/07/15 12:26:43;;;;;;;2.15;0.40;;;25.20;85.30;;;;;;5073560;28;20473;-74
2023/07/15 12:29:09;;;;;;;2.05;0.68;;;25.20;85.20;;;;;;5055745;28;20392;-74
2023/07/15 12:31:35;;;;;;;3.30;0.90;;;25.20;85.30;;;;;;5073590;28;20035;-75
2023/07/15 12:34:00;;;;;;;0.95;0.50;;;25.20;85.10;;;;;;5073822;28;20040;-74
2023/07/15 12:36:26;;;;;;;2.53;0.70;;;25.30;84.90;;;;;;5073846;28;20032;-74
2023/07/15 12:38:51;;;;;;;1.00;0.50;;;25.30;85.20;;;;;;5073553;28;20097;-75
2023/07/15 12:41:17;;;;;;;2.13;0.68;;;25.30;84.80;;;;;;5055249;28;20515;-74
2023/07/15 12:43:42;;;;;;;1.50;0.88;;;25.30;84.40;;;;;;5073426;28;20025;-75
2023/07/15 12:46:08;;;;;;;1.00;0.63;;;25.30;84.70;;;;;;5073663;28;20024;-75